Terminal Aerodrome Forecast
Issued by NWS

Home | Current Version | Previous Version | Text Only | Print | Product List | Glossary On
Versions: 1 2 3 4 5 6 7 8 9 10 11 12
000
FTUS42 TJSJ 231136
TAFJSJ
TAF
TJSJ 231136Z 2312/2412 11005KT P6SM VCSH FEW028 SCT045
     FM231400 08012G18KT P6SM SCT030
     FM232300 10006KT P6SM SCT030
     FM240600 11004KT P6SM VCSH FEW028 SCT040=

USA.gov is the U.S. government's official web portal to all federal, state and local government web resources and services.